Time;durP1;ratioP1;P1;durP2;ratioP2;P2;SDS_P1;SDS_P2;PMS_P1;PMS_P2;Temp;Humidity;BMP_temperature;BMP_pressure;BME280_temperature;BME280_humidity;BME280_pressure;Samples;Min_cycle;Max_cycle;Signal;HPM_P1;HPM_P2
2023/03/07 05:40:58;;;;;;;33.00;17.00;;;;;;;0.70;100.00;99306.05;112036;1248;22486;-44
2023/03/07 05:43:37;;;;;;;30.50;17.00;;;;;;;0.76;100.00;99302.44;113026;1248;22394;-42
2023/03/07 05:46:04;;;;;;;30.30;15.70;;;;;;;0.85;100.00;99295.59;112497;1248;22402;-43
2023/03/07 05:48:32;;;;;;;29.80;15.50;;;;;;;0.94;100.00;99299.40;113076;1248;22259;-51
2023/03/07 05:51:00;;;;;;;27.80;14.60;;;;;;;1.04;100.00;99297.92;113050;1248;22809;-43
2023/03/07 05:53:27;;;;;;;34.80;16.10;;;;;;;1.14;100.00;99292.63;111236;1248;22444;-43
2023/03/07 05:55:59;;;;;;;28.90;14.40;;;;;;;1.24;100.00;99290.95;111383;1248;24246;-42
2023/03/07 05:58:27;;;;;;;27.50;15.50;;;;;;;1.32;100.00;99284.95;112124;1248;22266;-45
2023/03/07 06:00:54;;;;;;;32.50;15.10;;;;;;;1.41;100.00;99284.61;112973;1248;22364;-51
2023/03/07 06:03:22;;;;;;;27.90;14.70;;;;;;;1.50;100.00;99281.20;112479;1248;24182;-51
2023/03/07 06:05:51;;;;;;;26.60;15.10;;;;;;;1.58;100.00;99279.80;112472;1248;24090;-44
2023/03/07 06:08:24;;;;;;;27.90;14.20;;;;;;;1.65;100.00;99281.83;112765;1248;23098;-44
2023/03/07 06:10:52;;;;;;;26.60;14.60;;;;;;;1.72;100.00;99282.50;112873;1247;22405;-52
2023/03/07 06:13:22;;;;;;;30.60;15.20;;;;;;;1.79;100.00;99281.08;112640;1248;244949;-52
2023/03/07 06:15:51;;;;;;;29.10;15.30;;;;;;;1.86;100.00;99282.76;112979;1248;23331;-51
2023/03/07 06:18:19;;;;;;;27.70;14.50;;;;;;;1.93;100.00;99286.14;112694;1248;22574;-44
2023/03/07 06:21:00;;;;;;;28.90;14.80;;;;;;;2.00;100.00;99283.86;112397;1248;22417;-53
2023/03/07 06:23:33;;;;;;;36.70;16.60;;;;;;;2.10;100.00;99283.89;112500;1248;23063;-44
2023/03/07 06:26:00;;;;;;;29.90;15.40;;;;;;;2.21;100.00;99283.89;112719;1248;22518;-52
2023/03/07 06:28:31;;;;;;;29.80;15.40;;;;;;;2.29;100.00;99282.48;112734;1248;22403;-51
2023/03/07 06:31:14;;;;;;;29.00;16.20;;;;;;;2.32;100.00;99285.80;112667;1248;22294;-45
2023/03/07 06:34:12;;;;;;;29.70;16.20;;;;;;;2.36;100.00;99281.75;112473;1248;22451;-45
2023/03/07 06:37:40;;;;;;;27.70;15.70;;;;;;;2.47;100.00;99275.90;112454;1248;22269;-44
2023/03/07 06:40:37;;;;;;;28.90;15.40;;;;;;;2.55;100.00;99277.74;112617;1248;22806;-44
2023/03/07 06:43:04;;;;;;;30.50;15.80;;;;;;;2.61;100.00;99279.73;112740;1248;22378;-44
2023/03/07 06:45:36;;;;;;;;;;;;;;;2.66;100.00;99274.30;112592;1248;22420;-47
2023/03/07 06:48:05;;;;;;;26.80;14.20;;;;;;;2.70;100.00;99275.73;112424;1248;23181;-43
2023/03/07 06:50:40;;;;;;;34.70;16.60;;;;;;;2.76;100.00;99277.38;112651;1248;23229;-43
2023/03/07 06:53:07;;;;;;;25.50;13.70;;;;;;;2.80;100.00;99278.81;112799;1248;23352;-53
2023/03/07 06:55:34;;;;;;;25.50;14.80;;;;;;;2.83;100.00;99275.24;112854;1248;22254;-53
2023/03/07 06:58:01;;;;;;;26.40;13.20;;;;;;;2.84;100.00;99274.41;112702;1248;22261;-51
2023/03/07 07:00:31;;;;;;;26.10;13.80;;;;;;;2.87;100.00;99269.11;112604;1248;22359;-51
2023/03/07 07:02:58;;;;;;;24.90;13.60;;;;;;;2.92;100.00;99263.34;112142;1248;22439;-45
2023/03/07 07:05:25;;;;;;;24.50;13.00;;;;;;;2.99;100.00;99258.42;112845;1248;22738;-45
2023/03/07 07:07:52;;;;;;;21.70;13.00;;;;;;;3.08;100.00;99263.20;112847;1248;22448;-51
2023/03/07 07:10:19;;;;;;;25.80;13.50;;;;;;;3.16;100.00;99266.08;111816;1248;22276;-52
2023/03/07 07:12:47;;;;;;;23.40;12.90;;;;;;;3.27;100.00;99269.48;112825;1248;23382;-51
2023/03/07 07:15:17;;;;;;;23.80;13.70;;;;;;;3.37;100.00;99262.37;112604;1248;22555;-44
2023/03/07 07:17:50;;;;;;;21.70;13.60;;;;;;;3.50;100.00;99261.66;111411;1248;23224;-51
2023/03/07 07:20:42;;;;;;;22.20;13.70;;;;;;;3.63;100.00;99254.74;112380;1248;22480;-45
2023/03/07 07:23:48;;;;;;;26.20;13.80;;;;;;;3.84;100.00;99251.36;111379;1248;24132;-52
2023/03/07 07:26:54;;;;;;;28.90;15.40;;;;;;;4.01;100.00;99240.83;111891;1248;22547;-53
2023/03/07 07:33:11;;;;;;;26.80;13.70;;;;;;;4.12;100.00;99235.05;112021;1248;23147;-44
2023/03/07 07:35:43;;;;;;;19.80;13.20;;;;;;;4.19;100.00;99232.90;111981;1248;22446;-44
2023/03/07 07:38:12;;;;;;;21.60;13.80;;;;;;;4.31;100.00;99229.17;112211;1248;22696;-44
2023/03/07 07:40:39;;;;;;;25.30;13.30;;;;;;;4.45;100.00;99233.09;112091;1248;22837;-44
2023/03/07 07:43:31;;;;;;;24.40;13.70;;;;;;;4.61;100.00;99230.62;112503;1248;23153;-52
2023/03/07 07:46:27;;;;;;;36.90;15.20;;;;;;;4.83;98.71;99230.26;111553;1248;23317;-45
2023/03/07 07:49:07;;;;;;;25.00;14.00;;;;;;;4.94;95.99;99224.10;112578;1248;22889;-46
2023/03/07 07:51:34;;;;;;;27.30;13.90;;;;;;;4.98;95.40;99226.02;112609;1248;22303;-45
2023/03/07 07:54:01;;;;;;;33.00;14.20;;;;;;;5.05;94.45;99226.58;112452;1248;23437;-52
2023/03/07 07:56:31;;;;;;;29.30;15.30;;;;;;;5.11;94.01;99222.46;111095;1248;22426;-52
2023/03/07 07:58:58;;;;;;;24.20;14.70;;;;;;;5.16;92.95;99219.02;112930;1248;22523;-44
2023/03/07 08:01:27;;;;;;;23.90;12.90;;;;;;;5.21;92.35;99222.86;112325;1248;22517;-51
2023/03/07 08:03:59;;;;;;;23.20;14.80;;;;;;;5.26;91.22;99219.92;111863;1248;23112;-51
2023/03/07 08:06:30;;;;;;;24.30;14.00;;;;;;;5.28;89.60;99221.33;111604;1244;23344;-51
2023/03/07 08:08:59;;;;;;;27.60;16.20;;;;;;;5.27;88.56;99213.19;112551;1248;22197;-45
2023/03/07 08:11:37;;;;;;;31.70;16.10;;;;;;;5.26;88.12;99210.06;112133;1248;23172;-43
2023/03/07 08:14:08;;;;;;;24.40;16.00;;;;;;;5.27;87.47;99206.11;111810;1248;22456;-52
2023/03/07 08:16:46;;;;;;;29.80;15.50;;;;;;;5.33;86.88;99207.52;111943;1248;22349;-52
2023/03/07 08:19:17;;;;;;;23.90;14.90;;;;;;;5.38;86.89;99203.73;111512;1248;22952;-45
2023/03/07 08:21:52;;;;;;;26.50;16.60;;;;;;;5.43;85.91;99203.57;111915;1248;22541;-45
2023/03/07 08:24:25;;;;;;;27.10;15.90;;;;;;;5.48;85.47;99207.05;111861;1248;22953;-53
2023/03/07 08:30:19;;;;;;;28.00;15.40;;;;;;;5.58;83.66;99199.98;112045;1248;22749;-51
2023/03/07 08:33:20;;;;;;;26.80;14.90;;;;;;;5.67;82.17;99199.83;112383;1248;22751;-42
2023/03/07 08:35:59;;;;;;;31.50;14.60;;;;;;;5.73;81.68;99194.14;112231;1248;22506;-40
2023/03/07 08:38:30;;;;;;;31.50;13.90;;;;;;;5.81;81.27;99189.13;112427;1248;22410;-41
2023/03/07 08:40:59;;;;;;;25.20;14.90;;;;;;;5.88;81.27;99190.17;112322;1248;22401;-41
2023/03/07 08:43:29;;;;;;;23.10;13.40;;;;;;;5.99;80.85;99187.98;112596;1248;23174;-41
2023/03/07 08:45:56;;;;;;;23.30;13.10;;;;;;;6.14;79.98;99190.40;112659;1248;22937;-43
2023/03/07 08:48:23;;;;;;;24.20;13.00;;;;;;;6.24;78.94;99190.76;112595;1248;22503;-41
2023/03/07 08:50:50;;;;;;;25.70;15.40;;;;;;;6.26;79.03;99179.84;112635;1248;23107;-40
2023/03/07 08:53:20;;;;;;;25.10;15.70;;;;;;;6.22;78.93;99177.08;112588;1248;23034;-40
2023/03/07 08:55:47;;;;;;;27.30;15.30;;;;;;;6.19;79.73;99183.82;112573;1248;23018;-49
2023/03/07 08:58:14;;;;;;;28.10;14.60;;;;;;;6.16;77.84;99181.41;112733;1247;22406;-49
2023/03/07 09:00:41;;;;;;;21.90;13.60;;;;;;;6.10;76.58;99182.61;112454;1241;22366;-48
2023/03/07 09:03:08;;;;;;;24.70;13.50;;;;;;;6.02;77.31;99178.11;112510;1248;22760;-48
2023/03/07 09:05:36;;;;;;;22.50;12.90;;;;;;;5.97;78.44;99178.80;112643;1248;23118;-48
2023/03/07 09:08:02;;;;;;;20.80;13.20;;;;;;;5.98;79.22;99175.70;112816;1248;23072;-41
2023/03/07 09:10:31;;;;;;;20.80;13.60;;;;;;;6.04;79.90;99180.02;112822;1248;22456;-49
2023/03/07 09:12:59;;;;;;;22.60;14.50;;;;;;;6.12;80.27;99185.05;112791;1248;22315;-43
2023/03/07 09:15:26;;;;;;;21.70;13.80;;;;;;;6.22;79.82;99177.95;112697;1248;23172;-44
2023/03/07 09:17:53;;;;;;;24.10;14.80;;;;;;;6.33;79.18;99181.92;112754;1248;22452;-43
2023/03/07 09:20:21;;;;;;;26.70;14.80;;;;;;;6.44;78.50;99176.37;112772;1248;22517;-51
2023/03/07 09:22:50;;;;;;;27.20;16.70;;;;;;;6.53;78.37;99181.55;112725;1248;22967;-50
2023/03/07 09:25:17;;;;;;;29.50;16.50;;;;;;;6.58;77.59;99178.95;112667;1248;22264;-42
2023/03/07 09:27:44;;;;;;;29.20;18.00;;;;;;;6.63;77.16;99181.02;112623;1248;22327;-43
2023/03/07 09:30:12;;;;;;;23.90;15.70;;;;;;;6.66;76.04;99187.77;112697;1248;22964;-42
2023/03/07 09:32:39;;;;;;;26.60;17.00;;;;;;;6.67;76.36;99184.65;112782;1248;22604;-42
2023/03/07 09:35:09;;;;;;;25.70;16.50;;;;;;;6.71;76.73;99179.96;112896;1248;23310;-42
2023/03/07 09:37:36;;;;;;;24.70;15.10;;;;;;;6.81;77.62;99175.42;112788;1248;23567;-42
2023/03/07 09:40:07;;;;;;;29.50;16.10;;;;;;;6.96;76.94;99169.15;112785;1248;22401;-45
2023/03/07 09:42:39;;;;;;;27.10;16.30;;;;;;;7.09;76.76;99163.73;112921;1248;22354;-45
2023/03/07 09:45:09;;;;;;;27.00;17.40;;;;;;;7.29;76.78;99162.60;112739;1248;22177;-43
2023/03/07 09:47:56;;;;;;;26.50;16.30;;;;;;;7.56;75.17;99155.16;112761;1248;22344;-43
2023/03/07 09:50:47;;;;;;;31.90;19.60;;;;;;;7.73;74.40;99150.90;112802;1248;22384;-43
2023/03/07 09:53:37;;;;;;;29.60;17.50;;;;;;;7.85;73.64;99148.03;112796;1248;23149;-43
2023/03/07 09:56:07;;;;;;;25.40;16.30;;;;;;;7.94;72.94;99147.27;112873;1248;22397;-45
2023/03/07 09:58:34;;;;;;;30.50;18.10;;;;;;;7.99;70.21;99150.53;112663;1248;22475;-50
2023/03/07 10:01:01;;;;;;;29.80;16.60;;;;;;;7.98;69.15;99142.19;112533;1248;22806;-50
2023/03/07 10:04:03;;;;;;;33.90;18.30;;;;;;;8.04;67.24;99138.16;112483;1248;23174;-45
2023/03/07 10:06:56;;;;;;;29.00;17.70;;;;;;;8.12;65.83;99135.84;112639;1248;22986;-52
2023/03/07 10:09:27;;;;;;;29.20;17.60;;;;;;;8.17;65.80;99132.67;112402;1248;22911;-42
2023/03/07 10:12:25;;;;;;;34.70;17.60;;;;;;;8.23;65.36;99131.23;112772;1248;22465;-43
2023/03/07 10:15:12;;;;;;;28.70;17.20;;;;;;;8.30;65.44;99127.70;112418;1248;22409;-44
2023/03/07 10:18:01;;;;;;;30.50;17.20;;;;;;;8.34;65.35;99122.45;112762;1248;22360;-41
2023/03/07 10:20:53;;;;;;;32.80;18.30;;;;;;;8.40;65.11;99114.61;112680;1248;22592;-44
2023/03/07 10:23:27;;;;;;;31.40;19.00;;;;;;;8.46;64.59;99111.75;112506;1248;22368;-44
2023/03/07 10:26:08;;;;;;;29.80;19.00;;;;;;;8.49;63.85;99107.20;112709;1248;22667;-44
2023/03/07 10:28:40;;;;;;;28.80;16.60;;;;;;;8.52;62.55;99103.69;112476;1248;22356;-51
2023/03/07 10:31:23;;;;;;;35.20;17.40;;;;;;;8.57;61.80;99104.52;112497;1248;22500;-51
2023/03/07 10:33:52;;;;;;;30.60;17.00;;;;;;;8.64;61.84;99101.31;112718;1248;22369;-44
2023/03/07 10:36:26;;;;;;;30.70;18.50;;;;;;;8.73;61.52;99097.39;112605;1248;22396;-44
2023/03/07 10:39:11;;;;;;;27.70;16.40;;;;;;;8.79;60.37;99109.83;112785;1248;22240;-44
2023/03/07 10:41:38;;;;;;;36.20;18.80;;;;;;;8.79;58.78;99116.61;112875;1248;22850;-44
2023/03/07 10:44:12;;;;;;;29.90;16.40;;;;;;;8.74;58.32;99117.35;112645;1248;22426;-44
2023/03/07 10:46:41;;;;;;;28.00;15.70;;;;;;;8.67;58.32;99109.63;112601;1248;22463;-53
2023/03/07 10:49:28;;;;;;;25.80;14.30;;;;;;;8.60;58.53;99104.67;112704;1248;22432;-44
2023/03/07 10:52:06;;;;;;;21.60;13.70;;;;;;;8.54;58.21;99110.27;112679;1248;22388;-43
2023/03/07 10:54:35;;;;;;;22.90;13.90;;;;;;;8.46;58.34;99106.73;112668;1248;22405;-43
2023/03/07 10:57:06;;;;;;;23.70;13.90;;;;;;;8.41;58.95;99126.92;112613;1248;22409;-43
2023/03/07 10:59:33;;;;;;;22.90;14.70;;;;;;;8.35;58.51;99107.85;112831;1244;22910;-43
2023/03/07 11:02:01;;;;;;;20.70;13.60;;;;;;;8.28;59.25;99116.76;112898;1248;23053;-44
2023/03/07 11:04:29;;;;;;;26.90;16.20;;;;;;;8.23;59.50;99098.75;112908;1248;22387;-43
2023/03/07 11:06:57;;;;;;;19.40;13.20;;;;;;;8.19;59.97;99105.73;112558;1248;23252;-43
2023/03/07 11:09:33;;;;;;;29.90;17.40;;;;;;;8.16;60.27;99095.33;112831;1248;22367;-43
2023/03/07 11:12:03;;;;;;;27.60;15.50;;;;;;;8.15;60.51;99098.48;112876;1248;23163;-52
2023/03/07 11:14:49;;;;;;;24.80;15.20;;;;;;;8.15;60.65;99091.17;112811;1248;22367;-44
2023/03/07 11:17:20;;;;;;;31.30;16.20;;;;;;;8.17;61.16;99084.55;112876;1248;22434;-44
2023/03/07 11:19:51;;;;;;;29.80;17.60;;;;;;;8.21;60.83;99088.16;112868;1248;22852;-44
2023/03/07 11:22:20;;;;;;;33.70;17.70;;;;;;;8.23;60.33;99095.80;112823;1248;22458;-44
2023/03/07 11:24:56;;;;;;;32.20;19.60;;;;;;;8.22;60.28;99092.66;112906;1248;23127;-56
2023/03/07 11:27:38;;;;;;;30.10;18.50;;;;;;;8.17;60.52;99088.38;112036;1248;22511;-44
2023/03/07 11:30:25;;;;;;;35.90;17.40;;;;;;;8.14;60.96;99083.20;112553;1248;22465;-51
2023/03/07 11:32:59;;;;;;;31.90;18.50;;;;;;;8.14;61.05;99091.54;112594;1248;22145;-43
2023/03/07 11:35:42;;;;;;;30.80;18.20;;;;;;;8.17;60.77;99090.12;112320;1248;22945;-44
2023/03/07 11:38:38;;;;;;;34.30;18.60;;;;;;;8.18;60.65;99089.95;112133;1248;22354;-49
2023/03/07 11:41:08;;;;;;;34.30;18.70;;;;;;;8.16;60.30;99080.73;112621;1248;22374;-52
2023/03/07 11:43:59;;;;;;;36.20;21.10;;;;;;;8.15;60.73;99074.33;112795;1248;23139;-53
2023/03/07 11:47:07;;;;;;;29.50;18.70;;;;;;;8.18;61.63;99077.08;112225;1248;23284;-41
2023/03/07 11:49:59;;;;;;;31.80;20.70;;;;;;;8.22;62.00;99072.86;112551;1248;22972;-50
2023/03/07 11:52:53;;;;;;;37.20;22.40;;;;;;;8.20;62.36;99070.64;113016;1248;23097;-51
2023/03/07 11:55:28;;;;;;;33.20;20.00;;;;;;;8.18;62.61;99069.60;112127;1255;22516;-42
2023/03/07 11:58:13;;;;;;;26.00;18.20;;;;;;;8.14;62.74;99073.98;112058;1255;23074;-43
2023/03/07 12:01:12;;;;;;;35.00;20.00;;;;;;;8.10;62.31;99056.31;112074;1256;22284;-51
2023/03/07 12:04:00;;;;;;;33.10;19.00;;;;;;;8.07;61.83;99054.61;112029;1255;22461;-51
2023/03/07 12:06:34;;;;;;;32.20;19.20;;;;;;;8.06;62.01;99044.02;112124;1255;22330;-43
2023/03/07 12:09:30;;;;;;;30.30;17.00;;;;;;;8.07;61.70;99040.55;112079;1255;22998;-44
2023/03/07 12:12:20;;;;;;;29.90;16.40;;;;;;;8.09;61.64;99038.45;112190;1255;22409;-43
2023/03/07 12:15:04;;;;;;;32.10;18.90;;;;;;;8.13;62.00;99034.40;112072;1255;22478;-50
2023/03/07 12:17:41;;;;;;;24.20;16.30;;;;;;;8.20;62.04;99032.08;112158;1255;22383;-43
2023/03/07 12:20:29;;;;;;;29.80;17.20;;;;;;;8.31;61.03;99027.95;112205;1255;22390;-50
2023/03/07 12:23:01;;;;;;;31.30;18.00;;;;;;;8.40;60.85;99030.33;112264;1255;22388;-45
2023/03/07 12:26:05;;;;;;;29.80;16.40;;;;;;;8.48;60.60;99026.75;112291;1255;22472;-43
2023/03/07 12:28:38;;;;;;;20.80;13.90;;;;;;;8.52;58.73;99026.71;110912;1261;23159;-50
2023/03/07 12:31:26;;;;;;;24.90;14.00;;;;;;;8.56;58.36;99026.33;111751;1261;22306;-42
2023/03/07 12:34:10;;;;;;;26.70;15.00;;;;;;;8.59;58.17;99021.77;112258;1255;22284;-50
2023/03/07 12:36:47;;;;;;;27.00;15.00;;;;;;;8.63;58.52;99022.07;112288;1255;22981;-43
2023/03/07 12:39:14;;;;;;;21.30;14.30;;;;;;;8.70;58.69;99028.75;111664;1255;22454;-42
2023/03/07 12:41:52;;;;;;;23.30;15.20;;;;;;;8.78;58.28;99019.95;112363;1254;23366;-51
2023/03/07 12:44:41;;;;;;;25.20;15.20;;;;;;;8.86;57.00;99026.82;111987;1255;23350;-43
2023/03/07 12:47:11;;;;;;;18.20;12.00;;;;;;;8.93;57.60;99018.70;112369;1255;22353;-43
2023/03/07 12:49:52;;;;;;;24.90;12.20;;;;;;;9.02;56.88;99026.77;112380;1255;22413;-51
2023/03/07 12:52:47;;;;;;;21.00;12.20;;;;;;;9.08;55.50;99022.15;112378;1255;22357;-43
2023/03/07 12:55:30;;;;;;;20.60;13.30;;;;;;;9.15;55.04;99019.09;112407;1254;22526;-44
2023/03/07 12:58:19;;;;;;;17.80;11.70;;;;;;;9.17;54.35;99018.56;112364;1255;22397;-44
2023/03/07 13:00:49;;;;;;;22.80;14.50;;;;;;;9.19;54.43;99011.56;111889;1255;22499;-43
2023/03/07 13:03:36;;;;;;;24.50;15.30;;;;;;;9.21;54.47;99020.57;111983;1248;22417;-42
2023/03/07 13:06:03;;;;;;;27.80;15.10;;;;;;;9.24;54.22;99016.71;112228;1248;22998;-50
2023/03/07 13:08:29;;;;;;;21.50;14.60;;;;;;;9.25;54.02;99011.29;111954;1248;22518;-43
2023/03/07 13:10:57;;;;;;;21.60;12.20;;;;;;;9.27;54.82;99011.11;112878;1248;22405;-50
2023/03/07 13:13:45;;;;;;;24.50;14.80;;;;;;;9.29;54.82;99017.16;112912;1248;22276;-51
2023/03/07 13:16:30;;;;;;;27.40;15.30;;;;;;;9.30;54.16;99017.66;113080;1248;23269;-52
